sensor_id;sensor_type;location;lat;lon;timestamp;pressure;altitude;pressure_sealevel;temperature;humidity
25722;BME280;13578;53.450;15.496;2023-03-24T00:00:22;98679.25;;;7.84;100.00
25722;BME280;13578;53.450;15.496;2023-03-24T00:03:23;98677.56;;;7.73;100.00
25722;BME280;13578;53.450;15.496;2023-03-24T00:06:25;98693.66;;;7.76;100.00
25722;BME280;13578;53.450;15.496;2023-03-24T00:09:26;98688.78;;;7.70;100.00
25722;BME280;13578;53.450;15.496;2023-03-24T00:12:29;98690.66;;;7.70;100.00
25722;BME280;13578;53.450;15.496;2023-03-24T00:15:30;98688.63;;;7.72;100.00
25722;BME280;13578;53.450;15.496;2023-03-24T00:18:31;98691.38;;;7.72;100.00
25722;BME280;13578;53.450;15.496;2023-03-24T00:21:32;98691.66;;;7.69;100.00
25722;BME280;13578;53.450;15.496;2023-03-24T00:24:33;98695.09;;;7.71;100.00
25722;BME280;13578;53.450;15.496;2023-03-24T00:27:33;98679.47;;;7.63;100.00
25722;BME280;13578;53.450;15.496;2023-03-24T00:30:36;98682.75;;;7.57;100.00
25722;BME280;13578;53.450;15.496;2023-03-24T00:33:37;98685.66;;;7.55;100.00
25722;BME280;13578;53.450;15.496;2023-03-24T00:36:39;98676.75;;;7.43;100.00
25722;BME280;13578;53.450;15.496;2023-03-24T00:39:41;98672.28;;;7.42;100.00
25722;BME280;13578;53.450;15.496;2023-03-24T00:42:43;98659.66;;;7.51;100.00
25722;BME280;13578;53.450;15.496;2023-03-24T00:45:45;98658.09;;;7.49;100.00
25722;BME280;13578;53.450;15.496;2023-03-24T00:48:46;98646.72;;;7.43;100.00
25722;BME280;13578;53.450;15.496;2023-03-24T00:51:50;98648.88;;;7.40;100.00
25722;BME280;13578;53.450;15.496;2023-03-24T00:54:52;98654.78;;;7.45;100.00
25722;BME280;13578;53.450;15.496;2023-03-24T00:57:54;98644.31;;;7.40;100.00
25722;BME280;13578;53.450;15.496;2023-03-24T01:00:56;98628.63;;;7.32;100.00
25722;BME280;13578;53.450;15.496;2023-03-24T01:03:57;98621.19;;;7.35;100.00
25722;BME280;13578;53.450;15.496;2023-03-24T01:06:59;98618.44;;;7.35;100.00
25722;BME280;13578;53.450;15.496;2023-03-24T01:10:00;98616.47;;;7.27;100.00
25722;BME280;13578;53.450;15.496;2023-03-24T01:13:02;98618.16;;;7.28;100.00
25722;BME280;13578;53.450;15.496;2023-03-24T01:16:03;98611.41;;;7.32;100.00
25722;BME280;13578;53.450;15.496;2023-03-24T01:19:04;98598.50;;;7.24;100.00
25722;BME280;13578;53.450;15.496;2023-03-24T01:22:06;98609.00;;;7.19;100.00
25722;BME280;13578;53.450;15.496;2023-03-24T01:25:09;98615.03;;;7.23;100.00
25722;BME280;13578;53.450;15.496;2023-03-24T01:28:11;98621.63;;;7.20;100.00
25722;BME280;13578;53.450;15.496;2023-03-24T01:31:12;98619.06;;;7.19;100.00
25722;BME280;13578;53.450;15.496;2023-03-24T01:34:13;98613.03;;;7.15;100.00
25722;BME280;13578;53.450;15.496;2023-03-24T01:37:13;98617.03;;;7.21;100.00
25722;BME280;13578;53.450;15.496;2023-03-24T01:40:20;98615.03;;;7.23;100.00
25722;BME280;13578;53.450;15.496;2023-03-24T01:43:27;98599.53;;;7.04;100.00
25722;BME280;13578;53.450;15.496;2023-03-24T01:46:30;98617.63;;;6.95;100.00
25722;BME280;13578;53.450;15.496;2023-03-24T01:49:42;98588.06;;;6.90;100.00
25722;BME280;13578;53.450;15.496;2023-03-24T01:52:45;98593.81;;;6.97;100.00
25722;BME280;13578;53.450;15.496;2023-03-24T01:55:46;98587.78;;;7.03;100.00
25722;BME280;13578;53.450;15.496;2023-03-24T01:58:52;98588.19;;;7.08;100.00
25722;BME280;13578;53.450;15.496;2023-03-24T02:01:55;98581.41;;;7.12;100.00
25722;BME280;13578;53.450;15.496;2023-03-24T02:05:05;98560.72;;;7.20;100.00
25722;BME280;13578;53.450;15.496;2023-03-24T02:11:22;98560.28;;;7.24;100.00
25722;BME280;13578;53.450;15.496;2023-03-24T02:14:24;98558.44;;;7.25;100.00
25722;BME280;13578;53.450;15.496;2023-03-24T02:24:59;98549.28;;;7.06;100.00
25722;BME280;13578;53.450;15.496;2023-03-24T02:28:24;98559.19;;;7.07;100.00
25722;BME280;13578;53.450;15.496;2023-03-24T02:31:48;98543.13;;;7.04;100.00
25722;BME280;13578;53.450;15.496;2023-03-24T02:35:12;98547.28;;;6.98;100.00
25722;BME280;13578;53.450;15.496;2023-03-24T02:45:48;98534.94;;;6.94;100.00
25722;BME280;13578;53.450;15.496;2023-03-24T02:52:20;98539.81;;;6.91;100.00
25722;BME280;13578;53.450;15.496;2023-03-24T02:55:49;98529.34;;;6.96;100.00
25722;BME280;13578;53.450;15.496;2023-03-24T02:59:05;98511.81;;;7.08;100.00
25722;BME280;13578;53.450;15.496;2023-03-24T03:02:11;98514.66;;;7.17;100.00
25722;BME280;13578;53.450;15.496;2023-03-24T03:08:24;98509.44;;;7.33;100.00
25722;BME280;13578;53.450;15.496;2023-03-24T03:11:27;98500.81;;;7.38;100.00
25722;BME280;13578;53.450;15.496;2023-03-24T03:14:34;98495.69;;;7.53;100.00
25722;BME280;13578;53.450;15.496;2023-03-24T03:17:44;98471.59;;;7.48;100.00
25722;BME280;13578;53.450;15.496;2023-03-24T03:20:51;98458.09;;;7.46;100.00
25722;BME280;13578;53.450;15.496;2023-03-24T03:23:57;98466.06;;;7.58;100.00
25722;BME280;13578;53.450;15.496;2023-03-24T03:27:05;98449.69;;;7.58;100.00
25722;BME280;13578;53.450;15.496;2023-03-24T03:30:18;98444.38;;;7.56;100.00
25722;BME280;13578;53.450;15.496;2023-03-24T03:33:25;98427.75;;;7.50;100.00
25722;BME280;13578;53.450;15.496;2023-03-24T03:40:00;98408.34;;;7.53;100.00
25722;BME280;13578;53.450;15.496;2023-03-24T03:43:04;98412.63;;;7.55;100.00
25722;BME280;13578;53.450;15.496;2023-03-24T03:46:06;98397.88;;;7.48;100.00
25722;BME280;13578;53.450;15.496;2023-03-24T03:49:07;98379.09;;;7.45;100.00
25722;BME280;13578;53.450;15.496;2023-03-24T03:52:08;98396.03;;;7.49;100.00
25722;BME280;13578;53.450;15.496;2023-03-24T03:55:10;98381.50;;;7.48;100.00
25722;BME280;13578;53.450;15.496;2023-03-24T03:58:11;98385.78;;;7.51;100.00
25722;BME280;13578;53.450;15.496;2023-03-24T04:01:15;98385.34;;;7.55;100.00
25722;BME280;13578;53.450;15.496;2023-03-24T04:04:30;98370.22;;;7.61;100.00
25722;BME280;13578;53.450;15.496;2023-03-24T04:11:03;98389.00;;;7.64;100.00
25722;BME280;13578;53.450;15.496;2023-03-24T04:14:22;98395.97;;;7.58;100.00
25722;BME280;13578;53.450;15.496;2023-03-24T04:17:49;98385.94;;;7.49;100.00
25722;BME280;13578;53.450;15.496;2023-03-24T04:24:23;98374.97;;;7.59;100.00
25722;BME280;13578;53.450;15.496;2023-03-24T04:30:42;98360.94;;;7.72;100.00
25722;BME280;13578;53.450;15.496;2023-03-24T04:33:51;98355.69;;;7.78;100.00
25722;BME280;13578;53.450;15.496;2023-03-24T04:37:04;98348.22;;;7.81;100.00
25722;BME280;13578;53.450;15.496;2023-03-24T04:40:10;98346.13;;;7.74;100.00
25722;BME280;13578;53.450;15.496;2023-03-24T04:43:14;98326.28;;;7.72;100.00
25722;BME280;13578;53.450;15.496;2023-03-24T04:46:17;98339.00;;;7.82;100.00
25722;BME280;13578;53.450;15.496;2023-03-24T04:49:18;98336.28;;;7.82;100.00
25722;BME280;13578;53.450;15.496;2023-03-24T04:52:18;98340.47;;;7.94;100.00
25722;BME280;13578;53.450;15.496;2023-03-24T04:58:54;98322.44;;;8.01;100.00
25722;BME280;13578;53.450;15.496;2023-03-24T05:01:55;98331.28;;;7.95;100.00
25722;BME280;13578;53.450;15.496;2023-03-24T05:04:56;98308.78;;;8.01;100.00
25722;BME280;13578;53.450;15.496;2023-03-24T05:07:57;98310.84;;;7.99;100.00
25722;BME280;13578;53.450;15.496;2023-03-24T05:10:58;98305.75;;;8.04;100.00
25722;BME280;13578;53.450;15.496;2023-03-24T05:13:58;98312.06;;;8.05;100.00
25722;BME280;13578;53.450;15.496;2023-03-24T05:16:59;98309.25;;;8.15;100.00
25722;BME280;13578;53.450;15.496;2023-03-24T05:20:00;98301.84;;;8.07;100.00
25722;BME280;13578;53.450;15.496;2023-03-24T05:23:01;98294.81;;;8.04;100.00
25722;BME280;13578;53.450;15.496;2023-03-24T05:26:02;98300.56;;;8.19;100.00
25722;BME280;13578;53.450;15.496;2023-03-24T05:29:03;98303.22;;;8.29;100.00
25722;BME280;13578;53.450;15.496;2023-03-24T05:32:04;98311.78;;;8.34;100.00
25722;BME280;13578;53.450;15.496;2023-03-24T05:35:05;98317.31;;;8.42;100.00
25722;BME280;13578;53.450;15.496;2023-03-24T05:38:05;98305.41;;;8.52;100.00
25722;BME280;13578;53.450;15.496;2023-03-24T05:41:06;98298.31;;;8.41;100.00
25722;BME280;13578;53.450;15.496;2023-03-24T05:44:07;98306.75;;;8.48;100.00
25722;BME280;13578;53.450;15.496;2023-03-24T05:47:08;98295.09;;;8.46;100.00
25722;BME280;13578;53.450;15.496;2023-03-24T05:50:09;98294.41;;;8.43;100.00
25722;BME280;13578;53.450;15.496;2023-03-24T05:53:10;98296.63;;;8.40;100.00
25722;BME280;13578;53.450;15.496;2023-03-24T05:56:11;98279.50;;;8.38;100.00
25722;BME280;13578;53.450;15.496;2023-03-24T05:59:11;98282.44;;;8.45;100.00
25722;BME280;13578;53.450;15.496;2023-03-24T06:02:12;98276.69;;;8.48;100.00
25722;BME280;13578;53.450;15.496;2023-03-24T06:05:13;98261.66;;;8.52;100.00
25722;BME280;13578;53.450;15.496;2023-03-24T06:08:13;98248.34;;;8.49;100.00
25722;BME280;13578;53.450;15.496;2023-03-24T06:11:16;98244.94;;;8.55;100.00
25722;BME280;13578;53.450;15.496;2023-03-24T06:14:16;98231.81;;;8.58;100.00
25722;BME280;13578;53.450;15.496;2023-03-24T06:17:17;98233.53;;;8.60;100.00
25722;BME280;13578;53.450;15.496;2023-03-24T06:20:21;98228.09;;;8.68;100.00
25722;BME280;13578;53.450;15.496;2023-03-24T06:23:22;98219.53;;;8.71;100.00
25722;BME280;13578;53.450;15.496;2023-03-24T06:26:25;98195.13;;;8.78;100.00
25722;BME280;13578;53.450;15.496;2023-03-24T06:29:28;98191.41;;;8.87;100.00
25722;BME280;13578;53.450;15.496;2023-03-24T06:32:28;98199.97;;;9.00;100.00
25722;BME280;13578;53.450;15.496;2023-03-24T06:35:29;98202.88;;;9.07;100.00
25722;BME280;13578;53.450;15.496;2023-03-24T06:38:30;98206.13;;;9.11;100.00
25722;BME280;13578;53.450;15.496;2023-03-24T06:41:31;98201.22;;;9.22;100.00
25722;BME280;13578;53.450;15.496;2023-03-24T06:44:32;98204.13;;;9.29;100.00
25722;BME280;13578;53.450;15.496;2023-03-24T06:47:33;98204.31;;;9.28;100.00
25722;BME280;13578;53.450;15.496;2023-03-24T06:50:33;98196.78;;;9.38;100.00
25722;BME280;13578;53.450;15.496;2023-03-24T06:53:34;98188.94;;;9.43;100.00
25722;BME280;13578;53.450;15.496;2023-03-24T06:56:37;98199.34;;;9.56;100.00
25722;BME280;13578;53.450;15.496;2023-03-24T06:59:37;98199.88;;;9.60;100.00
25722;BME280;13578;53.450;15.496;2023-03-24T07:02:38;98199.53;;;9.54;100.00
25722;BME280;13578;53.450;15.496;2023-03-24T07:05:40;98199.34;;;9.64;100.00
25722;BME280;13578;53.450;15.496;2023-03-24T07:08:41;98177.63;;;9.54;100.00
25722;BME280;13578;53.450;15.496;2023-03-24T07:11:42;98166.66;;;9.71;100.00
25722;BME280;13578;53.450;15.496;2023-03-24T07:14:42;98159.63;;;9.85;100.00
25722;BME280;13578;53.450;15.496;2023-03-24T07:17:43;98174.00;;;9.95;100.00
25722;BME280;13578;53.450;15.496;2023-03-24T07:20:44;98160.28;;;10.04;100.00
25722;BME280;13578;53.450;15.496;2023-03-24T07:23:45;98171.75;;;10.07;100.00
25722;BME280;13578;53.450;15.496;2023-03-24T07:26:45;98172.25;;;10.02;100.00
25722;BME280;13578;53.450;15.496;2023-03-24T07:29:46;98168.50;;;10.04;100.00
25722;BME280;13578;53.450;15.496;2023-03-24T07:32:47;98166.25;;;10.15;100.00
25722;BME280;13578;53.450;15.496;2023-03-24T07:35:48;98170.28;;;10.36;100.00
25722;BME280;13578;53.450;15.496;2023-03-24T07:38:49;98178.66;;;10.43;100.00
25722;BME280;13578;53.450;15.496;2023-03-24T07:41:50;98179.22;;;10.38;100.00
25722;BME280;13578;53.450;15.496;2023-03-24T07:44:50;98185.88;;;10.36;100.00
25722;BME280;13578;53.450;15.496;2023-03-24T07:47:51;98174.19;;;10.50;100.00
25722;BME280;13578;53.450;15.496;2023-03-24T07:50:52;98169.63;;;10.74;100.00
25722;BME280;13578;53.450;15.496;2023-03-24T07:53:53;98179.19;;;10.86;100.00
25722;BME280;13578;53.450;15.496;2023-03-24T07:56:54;98158.22;;;10.93;100.00
25722;BME280;13578;53.450;15.496;2023-03-24T07:59:55;98159.81;;;11.11;100.00
25722;BME280;13578;53.450;15.496;2023-03-24T08:02:56;98165.88;;;11.30;100.00
25722;BME280;13578;53.450;15.496;2023-03-24T08:05:56;98165.34;;;11.34;100.00
25722;BME280;13578;53.450;15.496;2023-03-24T08:08:57;98161.16;;;11.38;100.00
25722;BME280;13578;53.450;15.496;2023-03-24T08:11:57;98164.88;;;11.46;100.00
25722;BME280;13578;53.450;15.496;2023-03-24T08:14:58;98165.06;;;11.44;100.00
25722;BME280;13578;53.450;15.496;2023-03-24T08:17:59;98182.16;;;11.54;100.00
25722;BME280;13578;53.450;15.496;2023-03-24T08:21:00;98168.97;;;11.50;100.00
25722;BME280;13578;53.450;15.496;2023-03-24T08:24:01;98153.44;;;11.57;100.00
25722;BME280;13578;53.450;15.496;2023-03-24T08:27:02;98169.53;;;11.45;100.00
25722;BME280;13578;53.450;15.496;2023-03-24T08:30:07;98161.84;;;11.40;100.00
25722;BME280;13578;53.450;15.496;2023-03-24T08:33:12;98164.47;;;11.34;100.00
25722;BME280;13578;53.450;15.496;2023-03-24T08:36:12;98156.34;;;11.40;100.00
25722;BME280;13578;53.450;15.496;2023-03-24T08:39:13;98161.28;;;11.45;100.00
25722;BME280;13578;53.450;15.496;2023-03-24T08:42:14;98146.28;;;11.56;100.00
25722;BME280;13578;53.450;15.496;2023-03-24T08:45:16;98145.63;;;11.69;100.00
25722;BME280;13578;53.450;15.496;2023-03-24T08:48:21;98140.66;;;11.87;100.00
25722;BME280;13578;53.450;15.496;2023-03-24T08:51:22;98152.41;;;11.96;100.00
25722;BME280;13578;53.450;15.496;2023-03-24T08:54:23;98145.81;;;11.82;100.00
25722;BME280;13578;53.450;15.496;2023-03-24T08:57:24;98147.53;;;11.83;100.00
25722;BME280;13578;53.450;15.496;2023-03-24T09:00:25;98132.00;;;11.75;100.00
25722;BME280;13578;53.450;15.496;2023-03-24T09:03:26;98141.69;;;11.86;100.00
25722;BME280;13578;53.450;15.496;2023-03-24T09:06:26;98149.56;;;11.89;100.00
25722;BME280;13578;53.450;15.496;2023-03-24T09:09:27;98136.47;;;11.76;100.00
25722;BME280;13578;53.450;15.496;2023-03-24T09:12:28;98113.78;;;11.59;100.00
25722;BME280;13578;53.450;15.496;2023-03-24T09:15:29;98114.16;;;11.56;100.00
25722;BME280;13578;53.450;15.496;2023-03-24T09:18:30;98112.44;;;11.55;100.00
25722;BME280;13578;53.450;15.496;2023-03-24T09:21:31;98107.63;;;11.57;100.00
25722;BME280;13578;53.450;15.496;2023-03-24T09:24:31;98109.25;;;11.67;100.00
25722;BME280;13578;53.450;15.496;2023-03-24T09:27:32;98119.75;;;11.63;100.00
25722;BME280;13578;53.450;15.496;2023-03-24T09:30:33;98117.19;;;11.62;100.00
25722;BME280;13578;53.450;15.496;2023-03-24T09:33:34;98120.81;;;11.62;100.00
25722;BME280;13578;53.450;15.496;2023-03-24T09:36:35;98135.28;;;11.56;100.00
25722;BME280;13578;53.450;15.496;2023-03-24T09:39:36;98124.16;;;11.49;100.00
25722;BME280;13578;53.450;15.496;2023-03-24T09:42:40;98134.19;;;11.42;100.00
25722;BME280;13578;53.450;15.496;2023-03-24T09:45:53;98107.41;;;11.44;100.00
25722;BME280;13578;53.450;15.496;2023-03-24T09:48:56;98128.63;;;11.50;100.00
25722;BME280;13578;53.450;15.496;2023-03-24T09:52:05;98114.47;;;11.38;100.00
25722;BME280;13578;53.450;15.496;2023-03-24T09:55:11;98120.75;;;11.47;100.00
25722;BME280;13578;53.450;15.496;2023-03-24T09:58:14;98115.16;;;11.40;100.00
25722;BME280;13578;53.450;15.496;2023-03-24T10:01:16;98116.19;;;11.39;100.00
25722;BME280;13578;53.450;15.496;2023-03-24T10:04:23;98111.19;;;11.43;100.00
25722;BME280;13578;53.450;15.496;2023-03-24T10:07:42;98095.00;;;11.48;100.00
25722;BME280;13578;53.450;15.496;2023-03-24T10:21:00;98105.63;;;11.51;100.00
25722;BME280;13578;53.450;15.496;2023-03-24T10:30:40;98094.63;;;11.51;100.00
25722;BME280;13578;53.450;15.496;2023-03-24T10:33:43;98094.31;;;11.46;100.00
25722;BME280;13578;53.450;15.496;2023-03-24T10:36:44;98092.72;;;11.52;100.00
25722;BME280;13578;53.450;15.496;2023-03-24T10:39:45;98105.34;;;11.61;100.00
25722;BME280;13578;53.450;15.496;2023-03-24T10:42:47;98105.22;;;11.54;100.00
25722;BME280;13578;53.450;15.496;2023-03-24T10:45:51;98104.38;;;11.54;100.00
25722;BME280;13578;53.450;15.496;2023-03-24T10:49:05;98102.31;;;11.56;100.00
25722;BME280;13578;53.450;15.496;2023-03-24T10:52:08;98100.56;;;11.40;100.00
25722;BME280;13578;53.450;15.496;2023-03-24T10:55:17;98105.41;;;11.38;100.00
25722;BME280;13578;53.450;15.496;2023-03-24T10:58:39;98099.59;;;11.33;100.00
25722;BME280;13578;53.450;15.496;2023-03-24T11:01:40;98099.53;;;11.41;100.00
25722;BME280;13578;53.450;15.496;2023-03-24T11:04:44;98096.91;;;11.48;100.00
25722;BME280;13578;53.450;15.496;2023-03-24T11:07:49;98094.78;;;11.35;100.00
25722;BME280;13578;53.450;15.496;2023-03-24T11:10:51;98098.19;;;11.37;100.00
25722;BME280;13578;53.450;15.496;2023-03-24T11:13:57;98099.66;;;11.48;100.00
25722;BME280;13578;53.450;15.496;2023-03-24T11:17:09;98106.38;;;11.45;100.00
25722;BME280;13578;53.450;15.496;2023-03-24T11:20:21;98107.56;;;11.42;100.00
25722;BME280;13578;53.450;15.496;2023-03-24T11:23:38;98096.97;;;11.39;100.00
25722;BME280;13578;53.450;15.496;2023-03-24T11:26:39;98089.41;;;11.41;100.00
25722;BME280;13578;53.450;15.496;2023-03-24T11:29:48;98081.25;;;11.48;100.00
25722;BME280;13578;53.450;15.496;2023-03-24T11:32:49;98072.88;;;11.65;100.00
25722;BME280;13578;53.450;15.496;2023-03-24T11:35:54;98076.75;;;11.85;100.00
25722;BME280;13578;53.450;15.496;2023-03-24T11:39:20;98088.63;;;12.31;100.00
25722;BME280;13578;53.450;15.496;2023-03-24T11:42:26;98080.75;;;12.28;100.00
25722;BME280;13578;53.450;15.496;2023-03-24T11:45:38;98089.56;;;12.23;100.00
25722;BME280;13578;53.450;15.496;2023-03-24T11:48:46;98090.34;;;12.32;100.00
25722;BME280;13578;53.450;15.496;2023-03-24T11:51:53;98089.22;;;12.26;100.00
25722;BME280;13578;53.450;15.496;2023-03-24T11:54:54;98085.63;;;12.26;100.00
25722;BME280;13578;53.450;15.496;2023-03-24T11:58:09;98092.44;;;12.30;100.00
25722;BME280;13578;53.450;15.496;2023-03-24T12:04:36;98089.38;;;12.54;100.00
25722;BME280;13578;53.450;15.496;2023-03-24T12:12:12;98107.38;;;13.15;100.00
25722;BME280;13578;53.450;15.496;2023-03-24T12:15:45;98102.63;;;13.02;100.00
25722;BME280;13578;53.450;15.496;2023-03-24T12:28:56;98129.13;;;12.89;100.00
25722;BME280;13578;53.450;15.496;2023-03-24T12:45:52;98166.63;;;13.91;100.00
25722;BME280;13578;53.450;15.496;2023-03-24T12:48:59;98166.19;;;13.88;100.00
25722;BME280;13578;53.450;15.496;2023-03-24T12:52:24;98159.88;;;14.01;100.00
25722;BME280;13578;53.450;15.496;2023-03-24T12:58:53;98173.31;;;14.10;100.00
25722;BME280;13578;53.450;15.496;2023-03-24T13:02:28;98184.28;;;14.32;100.00
25722;BME280;13578;53.450;15.496;2023-03-24T13:05:33;98169.13;;;14.14;100.00
25722;BME280;13578;53.450;15.496;2023-03-24T13:08:37;98178.00;;;14.10;100.00
25722;BME280;13578;53.450;15.496;2023-03-24T13:11:57;98171.81;;;14.08;100.00
25722;BME280;13578;53.450;15.496;2023-03-24T13:15:23;98198.50;;;14.29;100.00
25722;BME280;13578;53.450;15.496;2023-03-24T13:21:27;98182.13;;;14.21;100.00
25722;BME280;13578;53.450;15.496;2023-03-24T13:24:29;98178.84;;;14.10;100.00
25722;BME280;13578;53.450;15.496;2023-03-24T13:27:36;98181.28;;;14.20;100.00
25722;BME280;13578;53.450;15.496;2023-03-24T13:30:40;98177.56;;;14.06;100.00
25722;BME280;13578;53.450;15.496;2023-03-24T13:33:43;98179.47;;;14.06;100.00
25722;BME280;13578;53.450;15.496;2023-03-24T13:36:50;98184.53;;;14.02;100.00
25722;BME280;13578;53.450;15.496;2023-03-24T13:39:57;98201.13;;;14.09;100.00
25722;BME280;13578;53.450;15.496;2023-03-24T13:43:06;98204.75;;;14.09;100.00
25722;BME280;13578;53.450;15.496;2023-03-24T13:46:13;98190.28;;;14.07;100.00
25722;BME280;13578;53.450;15.496;2023-03-24T13:49:15;98185.72;;;13.93;100.00
25722;BME280;13578;53.450;15.496;2023-03-24T13:52:36;98204.81;;;13.94;100.00
25722;BME280;13578;53.450;15.496;2023-03-24T13:55:50;98212.84;;;13.89;100.00
25722;BME280;13578;53.450;15.496;2023-03-24T14:02:19;98186.91;;;13.84;100.00
25722;BME280;13578;53.450;15.496;2023-03-24T14:15:14;98249.94;;;13.87;100.00
25722;BME280;13578;53.450;15.496;2023-03-24T14:21:28;98231.34;;;13.74;100.00
25722;BME280;13578;53.450;15.496;2023-03-24T14:24:31;98227.72;;;13.73;100.00
25722;BME280;13578;53.450;15.496;2023-03-24T14:27:36;98230.69;;;13.72;100.00
25722;BME280;13578;53.450;15.496;2023-03-24T14:31:00;98184.97;;;13.56;100.00
25722;BME280;13578;53.450;15.496;2023-03-24T14:34:14;98215.16;;;13.64;100.00
25722;BME280;13578;53.450;15.496;2023-03-24T14:37:17;98213.03;;;13.66;100.00
25722;BME280;13578;53.450;15.496;2023-03-24T14:40:27;98230.88;;;13.48;100.00
25722;BME280;13578;53.450;15.496;2023-03-24T14:46:49;98226.16;;;13.27;100.00
25722;BME280;13578;53.450;15.496;2023-03-24T14:49:52;98228.28;;;13.25;100.00
25722;BME280;13578;53.450;15.496;2023-03-24T14:52:57;98229.22;;;13.17;100.00
25722;BME280;13578;53.450;15.496;2023-03-24T14:55:58;98229.91;;;13.05;100.00
25722;BME280;13578;53.450;15.496;2023-03-24T14:59:02;98238.84;;;13.07;100.00
25722;BME280;13578;53.450;15.496;2023-03-24T15:02:23;98241.44;;;12.93;100.00
25722;BME280;13578;53.450;15.496;2023-03-24T15:08:31;98249.03;;;12.91;100.00
25722;BME280;13578;53.450;15.496;2023-03-24T15:11:34;98233.38;;;12.77;100.00
25722;BME280;13578;53.450;15.496;2023-03-24T15:14:36;98237.09;;;12.69;100.00
25722;BME280;13578;53.450;15.496;2023-03-24T15:17:41;98245.25;;;12.62;100.00
25722;BME280;13578;53.450;15.496;2023-03-24T15:20:44;98239.53;;;12.64;100.00
25722;BME280;13578;53.450;15.496;2023-03-24T15:23:46;98247.63;;;12.65;100.00
25722;BME280;13578;53.450;15.496;2023-03-24T15:26:49;98253.50;;;12.77;100.00
25722;BME280;13578;53.450;15.496;2023-03-24T15:29:57;98272.56;;;12.79;100.00
25722;BME280;13578;53.450;15.496;2023-03-24T15:32:58;98268.00;;;12.71;100.00
25722;BME280;13578;53.450;15.496;2023-03-24T15:35:59;98255.97;;;12.72;100.00
25722;BME280;13578;53.450;15.496;2023-03-24T15:39:15;98246.28;;;12.76;100.00
25722;BME280;13578;53.450;15.496;2023-03-24T15:42:20;98256.72;;;12.81;100.00
25722;BME280;13578;53.450;15.496;2023-03-24T15:45:28;98256.25;;;12.77;100.00
25722;BME280;13578;53.450;15.496;2023-03-24T15:48:34;98254.63;;;12.68;100.00
25722;BME280;13578;53.450;15.496;2023-03-24T15:51:56;98252.75;;;12.53;100.00
25722;BME280;13578;53.450;15.496;2023-03-24T15:55:01;98222.38;;;12.32;100.00
25722;BME280;13578;53.450;15.496;2023-03-24T15:58:23;98211.44;;;12.23;100.00
25722;BME280;13578;53.450;15.496;2023-03-24T16:01:27;98175.31;;;12.27;100.00
25722;BME280;13578;53.450;15.496;2023-03-24T16:04:35;98153.41;;;12.18;100.00
25722;BME280;13578;53.450;15.496;2023-03-24T16:07:38;98189.91;;;12.12;100.00
25722;BME280;13578;53.450;15.496;2023-03-24T16:10:41;98221.78;;;12.21;100.00
25722;BME280;13578;53.450;15.496;2023-03-24T16:13:44;98236.88;;;12.26;100.00
25722;BME280;13578;53.450;15.496;2023-03-24T16:16:44;98217.63;;;12.26;100.00
25722;BME280;13578;53.450;15.496;2023-03-24T16:19:45;98228.63;;;12.26;100.00
25722;BME280;13578;53.450;15.496;2023-03-24T16:22:46;98231.72;;;12.07;100.00
25722;BME280;13578;53.450;15.496;2023-03-24T16:25:46;98236.16;;;12.08;100.00
25722;BME280;13578;53.450;15.496;2023-03-24T16:28:48;98245.63;;;12.06;100.00
25722;BME280;13578;53.450;15.496;2023-03-24T16:31:51;98255.06;;;11.88;100.00
25722;BME280;13578;53.450;15.496;2023-03-24T16:34:51;98245.03;;;11.96;100.00
25722;BME280;13578;53.450;15.496;2023-03-24T16:37:52;98263.75;;;12.00;100.00
25722;BME280;13578;53.450;15.496;2023-03-24T16:40:55;98269.06;;;12.02;100.00
25722;BME280;13578;53.450;15.496;2023-03-24T16:43:56;98262.34;;;11.96;100.00
25722;BME280;13578;53.450;15.496;2023-03-24T16:46:56;98258.44;;;11.90;100.00
25722;BME280;13578;53.450;15.496;2023-03-24T16:49:57;98269.88;;;11.79;100.00
25722;BME280;13578;53.450;15.496;2023-03-24T16:52:58;98289.88;;;11.73;100.00
25722;BME280;13578;53.450;15.496;2023-03-24T16:55:59;98285.88;;;11.52;100.00
25722;BME280;13578;53.450;15.496;2023-03-24T16:58:59;98304.97;;;11.46;100.00
25722;BME280;13578;53.450;15.496;2023-03-24T17:02:01;98295.78;;;11.30;100.00
25722;BME280;13578;53.450;15.496;2023-03-24T17:08:45;98293.97;;;11.14;100.00
25722;BME280;13578;53.450;15.496;2023-03-24T17:11:49;98301.53;;;11.12;100.00
25722;BME280;13578;53.450;15.496;2023-03-24T17:14:51;98313.75;;;11.01;100.00
25722;BME280;13578;53.450;15.496;2023-03-24T17:17:52;98312.06;;;10.92;100.00
25722;BME280;13578;53.450;15.496;2023-03-24T17:20:57;98313.66;;;10.86;100.00
25722;BME280;13578;53.450;15.496;2023-03-24T17:23:58;98312.31;;;10.74;100.00
25722;BME280;13578;53.450;15.496;2023-03-24T17:26:58;98311.97;;;10.77;100.00
25722;BME280;13578;53.450;15.496;2023-03-24T17:30:00;98308.22;;;10.61;100.00
25722;BME280;13578;53.450;15.496;2023-03-24T17:33:01;98304.97;;;10.66;100.00
25722;BME280;13578;53.450;15.496;2023-03-24T17:36:02;98302.56;;;10.55;100.00
25722;BME280;13578;53.450;15.496;2023-03-24T17:39:02;98311.00;;;10.45;100.00
25722;BME280;13578;53.450;15.496;2023-03-24T17:42:04;98314.94;;;10.51;100.00
25722;BME280;13578;53.450;15.496;2023-03-24T17:45:07;98318.53;;;10.51;100.00
25722;BME280;13578;53.450;15.496;2023-03-24T17:48:08;98320.59;;;10.49;100.00
25722;BME280;13578;53.450;15.496;2023-03-24T17:51:08;98317.88;;;10.41;100.00
25722;BME280;13578;53.450;15.496;2023-03-24T17:54:09;98331.91;;;10.38;100.00
25722;BME280;13578;53.450;15.496;2023-03-24T17:57:11;98320.59;;;10.32;100.00
25722;BME280;13578;53.450;15.496;2023-03-24T18:00:12;98340.63;;;10.33;100.00